Time;durP1;ratioP1;P1;durP2;ratioP2;P2;SDS_P1;SDS_P2;PMS_P1;PMS_P2;Temp;Humidity;BMP_temperature;BMP_pressure;BME280_temperature;BME280_humidity;BME280_pressure;Samples;Min_cycle;Max_cycle;Signal;HPM_P1;HPM_P2
2024/01/27 04:01:56;;;;;;;14.57;2.70;;;4.50;99.90;;;;;;5970789;23;20208;-85
2024/01/27 04:37:24;;;;;;;7.60;2.80;;;4.10;99.90;;;;;;5697210;24;20200;-84
2024/01/27 04:57:49;;;;;;;12.33;3.60;;;4.30;99.90;;;;;;5781890;24;20664;-83
2024/01/27 06:03:02;;;;;;;10.80;3.33;;;4.10;99.90;;;;;;5876185;23;20519;-85
2024/01/27 06:23:48;;;;;;;13.50;3.23;;;4.30;99.90;;;;;;5651969;24;20183;-86
2024/01/27 06:43:40;;;;;;;15.03;4.10;;;4.30;99.90;;;;;;5660065;24;20738;-82
2024/01/27 07:09:33;;;;;;;17.00;4.00;;;3.70;99.90;;;;;;5879028;23;20679;-84
2024/01/27 07:29:47;;;;;;;12.93;4.53;;;3.50;99.90;;;;;;5765471;24;20169;-85
2024/01/27 07:55:02;;;;;;;12.07;4.80;;;3.50;99.90;;;;;;5596191;25;20280;-83
2024/01/27 08:10:33;;;;;;;11.80;5.53;;;3.60;99.90;;;;;;5696568;24;20905;-83
2024/01/27 08:14:53;;;;;;;10.83;5.47;;;3.60;99.90;;;;;;5619765;24;20698;-83
2024/01/27 09:21:27;;;;;;;11.80;5.90;;;3.60;99.90;;;;;;5593391;25;20635;-85
2024/01/27 10:07:06;;;;;;;7.47;4.13;;;4.00;99.90;;;;;;5692836;25;20190;-87
2024/01/27 10:32:17;;;;;;;5.63;3.50;;;4.10;99.90;;;;;;5570369;25;20188;-86
2024/01/27 10:52:18;;;;;;;5.77;3.73;;;4.20;99.90;;;;;;5632470;24;20430;-87
2024/01/27 11:18:06;;;;;;;4.00;3.10;;;4.30;99.90;;;;;;5872764;24;20406;-84
2024/01/27 11:48:29;;;;;;;5.20;4.77;;;4.20;99.90;;;;;;5893234;24;20614;-85
2024/01/27 12:13:18;;;;;;;4.60;4.20;;;4.10;99.90;;;;;;5866104;23;20184;-88
2024/01/27 12:39:10;;;;;;;6.57;5.17;;;3.90;99.90;;;;;;5707240;24;20235;-86
2024/01/27 12:59:11;;;;;;;5.67;5.17;;;4.20;99.90;;;;;;5640256;24;20569;-86
2024/01/27 13:19:41;;;;;;;5.90;3.80;;;4.30;99.90;;;;;;5723239;24;20191;-87
2024/01/27 13:45:10;;;;;;;5.57;3.83;;;4.60;99.90;;;;;;6087053;23;20198;-86
2024/01/27 14:09:54;;;;;;;5.27;3.77;;;4.40;99.90;;;;;;5667396;24;20203;-87
2024/01/27 14:30:46;;;;;;;4.17;3.60;;;4.40;99.90;;;;;;5672133;24;20360;-86
2024/01/27 14:56:27;;;;;;;2.60;2.40;;;4.10;99.90;;;;;;5806278;24;20222;-84
2024/01/27 15:00:38;;;;;;;2.80;2.50;;;4.10;99.90;;;;;;5744289;24;20518;-87
2024/01/27 15:21:29;;;;;;;2.83;2.63;;;4.20;99.90;;;;;;5774655;24;20186;-88
2024/01/27 15:41:50;;;;;;;4.97;4.43;;;3.80;99.90;;;;;;5654032;25;20316;-86
2024/01/27 16:22:16;;;;;;;6.67;5.33;;;3.20;99.90;;;;;;5968520;23;20196;-87
2024/01/27 16:52:31;;;;;;;6.40;5.80;;;3.00;99.90;;;;;;6085202;23;20183;-86
2024/01/27 17:12:56;;;;;;;6.37;5.60;;;2.90;99.90;;;;;;5964323;23;20299;-86
2024/01/27 18:08:46;;;;;;;20.17;13.43;;;2.90;99.90;;;;;;5932566;23;20587;-87
2024/01/27 18:39:04;;;;;;;16.27;10.43;;;3.00;99.90;;;;;;6089761;23;20205;-86
2024/01/27 19:09:03;;;;;;;5.93;4.50;;;3.30;99.90;;;;;;6043261;23;20463;-87
2024/01/27 19:29:52;;;;;;;7.30;3.50;;;3.40;99.90;;;;;;5969409;23;20220;-86
2024/01/27 19:55:17;;;;;;;6.97;3.07;;;3.50;99.90;;;;;;5925909;23;20213;-85
2024/01/27 20:20:33;;;;;;;8.57;3.33;;;3.60;99.90;;;;;;5737289;24;20350;-88
2024/01/27 20:40:59;;;;;;;5.93;2.77;;;3.70;99.90;;;;;;5629981;25;20525;-89
2024/01/27 21:11:19;;;;;;;7.77;2.93;;;3.80;99.90;;;;;;5820648;24;20176;-87
2024/01/27 22:11:55;;;;;;;4.57;2.27;;;3.60;99.90;;;;;;5667955;24;20199;-85
2024/01/27 23:02:19;;;;;;;12.03;3.77;;;3.40;99.90;;;;;;5714296;24;20218;-87
2024/01/27 23:23:13;;;;;;;11.13;4.23;;;3.20;99.90;;;;;;5768287;24;20166;-85
2024/01/27 23:48:12;;;;;;;11.83;4.20;;;3.30;99.90;;;;;;5638033;24;20456;-83
